createdAt,value
2022-11-19T00:00:36.388Z,0.68
2022-11-19T00:03:10.804Z,0.60
2022-11-19T00:05:46.100Z,0.88
2022-11-19T00:08:21.421Z,0.60
2022-11-19T00:10:54.287Z,0.73
2022-11-19T00:13:26.269Z,0.80
2022-11-19T00:16:03.643Z,0.70
2022-11-19T00:18:38.076Z,0.70
2022-11-19T00:21:12.689Z,0.90
2022-11-19T00:23:45.668Z,0.73
2022-11-19T00:26:18.681Z,0.63
2022-11-19T00:28:52.112Z,0.60
2022-11-19T00:31:25.745Z,0.60
2022-11-19T00:34:00.082Z,0.80
2022-11-19T00:36:33.234Z,0.60
2022-11-19T00:39:06.511Z,0.55
2022-11-19T00:41:39.659Z,0.52
2022-11-19T00:44:12.623Z,0.50
2022-11-19T00:46:45.483Z,0.95
2022-11-19T00:49:20.052Z,0.60
2022-11-19T00:51:53.375Z,0.77
2022-11-19T00:54:26.468Z,1.20
2022-11-19T00:56:59.352Z,1.20
2022-11-19T00:59:32.672Z,1.00
2022-11-19T01:02:05.519Z,1.00
2022-11-19T01:04:40.003Z,0.60
2022-11-19T01:07:13.056Z,0.70
2022-11-19T01:09:47.414Z,0.70
2022-11-19T01:12:20.285Z,0.60
2022-11-19T01:14:53.358Z,0.60
2022-11-19T01:17:26.217Z,0.85
2022-11-19T01:20:00.628Z,0.85
2022-11-19T01:22:33.506Z,0.70
2022-11-19T01:25:07.219Z,0.50
2022-11-19T01:27:40.075Z,0.57
2022-11-19T01:30:13.818Z,0.70
2022-11-19T01:32:46.796Z,0.50
2022-11-19T01:35:20.949Z,0.60
2022-11-19T01:37:54.189Z,0.45
2022-11-19T01:40:27.441Z,0.60
2022-11-19T01:43:00.446Z,0.70
2022-11-19T01:45:36.635Z,0.60
2022-11-19T01:48:14.611Z,1.25
2022-11-19T01:50:52.856Z,0.60
2022-11-19T01:53:30.601Z,0.88
2022-11-19T01:56:06.021Z,0.70
2022-11-19T01:58:41.715Z,1.00
2022-11-19T02:01:15.792Z,0.85
2022-11-19T02:03:50.224Z,0.70
2022-11-19T02:06:24.499Z,0.75
2022-11-19T02:08:57.489Z,0.70
2022-11-19T02:11:56.393Z,0.80
2022-11-19T02:14:54.512Z,0.57
2022-11-19T02:17:42.409Z,0.70
2022-11-19T02:20:45.493Z,0.63
2022-11-19T02:23:53.243Z,0.80
2022-11-19T02:26:58.279Z,0.70
2022-11-19T02:30:16.586Z,0.77
2022-11-19T02:32:59.250Z,0.90
2022-11-19T02:35:43.344Z,0.60
2022-11-19T02:38:32.372Z,0.63
2022-11-19T02:41:30.465Z,0.85
2022-11-19T02:44:41.333Z,0.82
2022-11-19T02:47:17.527Z,0.77
2022-11-19T02:49:58.181Z,0.82
2022-11-19T02:52:31.535Z,0.75
2022-11-19T02:55:04.973Z,0.75
2022-11-19T02:57:38.403Z,0.80
2022-11-19T03:00:30.439Z,0.73
2022-11-19T03:06:03.276Z,0.75
2022-11-19T03:08:36.559Z,0.70
2022-11-19T03:11:19.381Z,0.63
2022-11-19T03:14:14.801Z,0.60
2022-11-19T03:16:56.128Z,0.80
2022-11-19T03:19:38.847Z,0.75
2022-11-19T03:22:19.675Z,0.80
2022-11-19T03:24:59.882Z,0.50
2022-11-19T03:27:39.782Z,0.82
2022-11-19T03:30:15.392Z,0.80
2022-11-19T03:32:53.684Z,0.70
2022-11-19T03:35:31.095Z,0.80
2022-11-19T03:38:09.547Z,0.77
2022-11-19T03:40:43.894Z,0.52
2022-11-19T03:43:21.927Z,0.70
2022-11-19T03:45:58.290Z,0.90
2022-11-19T03:48:32.254Z,0.63
2022-11-19T03:51:10.600Z,0.65
2022-11-19T03:53:45.510Z,0.65
2022-11-19T03:56:21.932Z,0.80
2022-11-19T03:58:55.614Z,0.75
2022-11-19T04:01:28.482Z,1.00
2022-11-19T04:04:18.782Z,0.70
2022-11-19T04:06:51.888Z,0.60
2022-11-19T04:09:26.250Z,0.70
2022-11-19T04:11:59.194Z,0.88
2022-11-19T04:14:32.152Z,0.80
2022-11-19T04:17:05.002Z,1.00
2022-11-19T04:19:38.285Z,0.80
2022-11-19T04:22:11.230Z,0.90
2022-11-19T04:24:45.934Z,1.10
2022-11-19T04:27:18.766Z,0.80
2022-11-19T04:29:51.637Z,0.82
2022-11-19T04:32:24.879Z,1.05
2022-11-19T04:34:57.708Z,0.95
2022-11-19T04:37:30.586Z,0.75
2022-11-19T04:40:05.677Z,0.80
2022-11-19T04:42:38.499Z,0.98
2022-11-19T04:45:11.937Z,0.77
2022-11-19T04:47:44.815Z,0.90
2022-11-19T04:50:18.098Z,0.98
2022-11-19T04:52:51.670Z,0.90
2022-11-19T04:55:25.974Z,1.00
2022-11-19T04:57:58.736Z,0.80
2022-11-19T05:00:31.608Z,0.63
2022-11-19T05:03:04.796Z,0.73
2022-11-19T05:05:37.856Z,1.00
2022-11-19T05:08:10.665Z,0.75
2022-11-19T05:10:46.395Z,0.80
2022-11-19T05:13:19.505Z,0.98
2022-11-19T05:15:52.782Z,0.80
2022-11-19T05:18:25.835Z,0.98
2022-11-19T05:20:59.089Z,0.77
2022-11-19T05:23:31.958Z,0.90
2022-11-19T05:26:06.506Z,1.00
2022-11-19T05:28:40.232Z,1.05
2022-11-19T05:31:13.486Z,1.00
2022-11-19T05:33:46.269Z,0.90
2022-11-19T05:36:19.164Z,1.02
2022-11-19T05:38:51.941Z,1.02
2022-11-19T05:41:26.232Z,1.10
2022-11-19T05:43:58.975Z,1.10
2022-11-19T05:46:31.899Z,0.93
2022-11-19T05:49:04.839Z,1.30
2022-11-19T05:51:37.644Z,1.40
2022-11-19T05:54:10.873Z,1.23
2022-11-19T05:56:45.758Z,1.05
2022-11-19T05:59:18.833Z,1.15
2022-11-19T06:01:52.035Z,1.10
2022-11-19T06:04:24.862Z,1.05
2022-11-19T06:06:57.852Z,1.20
2022-11-19T06:09:30.706Z,0.95
2022-11-19T06:12:05.510Z,1.00
2022-11-19T06:14:38.364Z,1.17
2022-11-19T06:17:11.345Z,1.30
2022-11-19T06:19:44.136Z,1.00
2022-11-19T06:22:17.042Z,1.05
2022-11-19T06:24:50.010Z,1.27
2022-11-19T06:27:24.245Z,1.17
2022-11-19T06:29:57.450Z,1.15
2022-11-19T06:32:30.458Z,1.08
2022-11-19T06:35:03.352Z,1.20
2022-11-19T06:37:36.661Z,1.30
2022-11-19T06:40:10.576Z,1.10
2022-11-19T06:42:49.808Z,1.60
2022-11-19T06:45:23.901Z,1.50
2022-11-19T06:47:56.884Z,1.73
2022-11-19T06:50:29.911Z,2.00
2022-11-19T06:53:02.964Z,1.52
2022-11-19T06:55:35.886Z,1.60
2022-11-19T06:58:10.422Z,1.48
2022-11-19T07:00:43.317Z,1.63
2022-11-19T07:03:16.651Z,1.70
2022-11-19T07:05:49.732Z,1.52
2022-11-19T07:08:22.943Z,1.40
2022-11-19T07:10:56.607Z,1.52
2022-11-19T07:13:50.898Z,1.63
2022-11-19T07:16:23.776Z,1.88
2022-11-19T07:18:59.009Z,1.80
2022-11-19T07:21:32.911Z,1.80
2022-11-19T07:24:08.521Z,1.80
2022-11-19T07:26:41.311Z,2.40
2022-11-19T07:29:16.481Z,2.03
2022-11-19T07:31:50.672Z,2.20
2022-11-19T07:34:23.542Z,1.98
2022-11-19T07:36:56.823Z,2.38
2022-11-19T07:39:29.718Z,2.42
2022-11-19T07:42:20.234Z,2.60
2022-11-19T07:44:55.096Z,2.65
2022-11-19T07:47:28.072Z,2.30
2022-11-19T07:50:01.169Z,1.77
2022-11-19T07:52:34.125Z,1.65
2022-11-19T07:55:07.953Z,1.75
2022-11-19T07:57:40.782Z,1.48
2022-11-19T08:00:16.648Z,1.63
2022-11-19T08:02:50.030Z,1.60
2022-11-19T08:05:22.992Z,1.33
2022-11-19T08:07:56.014Z,2.08
2022-11-19T08:10:31.893Z,1.50
2022-11-19T08:13:04.985Z,1.30
2022-11-19T08:15:39.223Z,1.38
2022-11-19T08:18:15.737Z,1.30
2022-11-19T08:20:48.849Z,1.08
2022-11-19T08:23:22.953Z,1.55
2022-11-19T08:25:55.826Z,1.30
2022-11-19T08:28:29.039Z,1.02
2022-11-19T08:31:09.773Z,1.40
2022-11-19T08:33:42.632Z,1.50
2022-11-19T08:36:15.443Z,1.30
2022-11-19T08:38:48.411Z,1.30
2022-11-19T08:41:38.542Z,1.35
2022-11-19T08:44:11.477Z,1.10
2022-11-19T08:46:45.901Z,1.00
2022-11-19T08:49:18.868Z,1.27
2022-11-19T08:51:51.710Z,1.13
2022-11-19T08:54:24.900Z,1.27
2022-11-19T08:56:57.840Z,1.50
2022-11-19T08:59:30.665Z,1.02
2022-11-19T09:02:04.886Z,1.25
2022-11-19T09:04:37.992Z,1.00
2022-11-19T09:07:10.868Z,1.15
2022-11-19T09:09:43.785Z,0.85
2022-11-19T09:12:17.428Z,1.38
2022-11-19T09:14:52.121Z,1.40
2022-11-19T09:17:26.434Z,1.10
2022-11-19T09:19:59.266Z,1.20
2022-11-19T09:22:33.337Z,1.23
2022-11-19T09:25:09.061Z,1.20
2022-11-19T09:27:41.967Z,1.10
2022-11-19T09:30:15.394Z,0.90
2022-11-19T09:32:49.677Z,0.90
2022-11-19T09:35:22.913Z,0.90
2022-11-19T09:37:55.787Z,0.70
2022-11-19T09:40:28.711Z,0.90
2022-11-19T09:43:14.074Z,0.68
2022-11-19T09:45:59.994Z,1.13
2022-11-19T09:48:38.307Z,0.90
2022-11-19T09:51:14.082Z,0.98
2022-11-19T09:53:52.221Z,0.70
2022-11-19T09:56:28.986Z,0.75
2022-11-19T09:59:08.700Z,0.70
2022-11-19T10:01:42.026Z,1.35
2022-11-19T10:04:18.779Z,0.70
2022-11-19T10:07:01.129Z,0.77
2022-11-19T10:09:45.991Z,0.60
2022-11-19T10:12:47.435Z,0.90
2022-11-19T10:15:25.509Z,0.80
2022-11-19T10:18:10.189Z,0.73
2022-11-19T10:21:03.859Z,0.90
2022-11-19T10:23:48.086Z,1.20
2022-11-19T10:26:28.092Z,0.90
2022-11-19T10:29:03.027Z,0.80
2022-11-19T10:31:38.567Z,0.60
2022-11-19T10:34:18.769Z,0.60
2022-11-19T10:36:58.981Z,0.70
2022-11-19T10:39:36.616Z,0.80
2022-11-19T10:42:19.229Z,0.50
2022-11-19T10:44:56.307Z,0.60
2022-11-19T10:47:34.684Z,0.80
2022-11-19T10:50:11.430Z,0.90
2022-11-19T10:52:50.473Z,1.40
2022-11-19T10:55:27.350Z,0.55
2022-11-19T10:58:09.379Z,0.65
2022-11-19T11:00:43.918Z,1.10
2022-11-19T11:03:22.743Z,1.10
2022-11-19T11:05:59.078Z,0.80
2022-11-19T11:08:34.044Z,0.85
2022-11-19T11:11:06.883Z,0.73
2022-11-19T11:13:59.570Z,1.02
2022-11-19T11:16:45.513Z,0.52
2022-11-19T11:19:21.490Z,0.90
2022-11-19T11:21:56.008Z,0.73
2022-11-19T11:24:36.000Z,0.70
2022-11-19T11:27:22.620Z,0.85
2022-11-19T11:30:07.235Z,0.80
2022-11-19T11:32:41.337Z,0.50
2022-11-19T11:35:39.078Z,0.90
2022-11-19T11:38:11.970Z,0.80
2022-11-19T11:44:03.480Z,0.88
2022-11-19T11:46:41.151Z,1.50
2022-11-19T11:49:24.238Z,0.90
2022-11-19T11:52:21.407Z,0.70
2022-11-19T11:54:57.262Z,0.80
2022-11-19T11:57:33.836Z,0.85
2022-11-19T12:00:30.130Z,0.85
2022-11-19T12:03:06.740Z,0.70
2022-11-19T12:06:01.280Z,0.80
2022-11-19T12:08:46.412Z,0.70
2022-11-19T12:11:25.916Z,0.85
2022-11-19T12:14:10.702Z,0.80
2022-11-19T12:16:51.447Z,0.80
2022-11-19T12:19:59.860Z,0.88
2022-11-19T12:22:50.036Z,0.98
2022-11-19T12:25:32.163Z,1.25
2022-11-19T12:28:20.237Z,0.75
2022-11-19T12:31:05.903Z,1.05
2022-11-19T12:33:57.495Z,0.75
2022-11-19T12:36:39.904Z,0.90
2022-11-19T12:39:27.024Z,0.70
2022-11-19T12:42:19.951Z,0.88
2022-11-19T12:45:02.316Z,0.63
2022-11-19T12:47:53.828Z,0.82
2022-11-19T12:50:33.852Z,0.82
2022-11-19T12:53:16.529Z,1.20
2022-11-19T12:56:03.905Z,1.00
2022-11-19T12:58:45.351Z,0.98
2022-11-19T13:01:24.768Z,0.57
2022-11-19T13:04:05.541Z,1.00
2022-11-19T13:06:47.305Z,0.85
2022-11-19T13:09:36.722Z,0.75
2022-11-19T13:12:15.441Z,0.93
2022-11-19T13:14:55.265Z,0.82
2022-11-19T13:17:32.887Z,1.20
2022-11-19T13:20:14.494Z,0.90
2022-11-19T13:22:49.100Z,0.75
2022-11-19T13:25:26.178Z,0.47
2022-11-19T13:28:04.233Z,0.60
2022-11-19T13:30:37.179Z,0.73
2022-11-19T13:33:17.164Z,0.80
2022-11-19T13:35:55.880Z,0.85
2022-11-19T13:38:37.902Z,0.70
2022-11-19T13:41:15.666Z,0.60
2022-11-19T13:44:08.214Z,0.55
2022-11-19T13:46:45.109Z,0.82
2022-11-19T13:49:23.486Z,1.20
2022-11-19T13:52:01.055Z,0.70
2022-11-19T13:54:36.620Z,0.95
2022-11-19T13:57:23.641Z,0.73
2022-11-19T14:00:25.286Z,1.00
2022-11-19T14:03:28.446Z,0.85
2022-11-19T14:06:24.642Z,0.50
2022-11-19T14:09:07.232Z,0.70
2022-11-19T14:12:04.091Z,0.70
2022-11-19T14:15:06.469Z,0.85
2022-11-19T14:18:06.524Z,0.90
2022-11-19T14:20:58.799Z,0.82
2022-11-19T14:24:06.032Z,0.63
2022-11-19T14:27:01.683Z,0.63
2022-11-19T14:29:56.984Z,0.90
2022-11-19T14:32:36.774Z,1.00
2022-11-19T14:35:34.213Z,1.55
2022-11-19T14:38:39.465Z,0.98
2022-11-19T14:41:33.789Z,0.80
2022-11-19T14:44:10.739Z,1.02
2022-11-19T14:46:46.541Z,1.05
2022-11-19T14:49:34.791Z,0.70
2022-11-19T14:52:21.226Z,1.13
2022-11-19T14:54:57.406Z,0.80
2022-11-19T14:57:33.295Z,0.65
2022-11-19T15:00:26.406Z,0.63
2022-11-19T15:02:59.808Z,0.70
2022-11-19T15:05:36.272Z,0.82
2022-11-19T15:08:44.170Z,0.90
2022-11-19T15:11:18.131Z,1.13
2022-11-19T15:14:38.606Z,1.05
2022-11-19T15:17:12.637Z,1.40
2022-11-19T15:19:50.821Z,1.52
2022-11-19T15:22:51.234Z,1.30
2022-11-19T15:25:33.859Z,1.27
2022-11-19T15:28:20.434Z,1.50
2022-11-19T15:31:27.149Z,1.10
2022-11-19T15:34:24.614Z,0.70
2022-11-19T15:37:01.685Z,0.60
2022-11-19T15:39:39.472Z,0.60
2022-11-19T15:42:18.057Z,0.85
2022-11-19T15:44:56.200Z,0.80
2022-11-19T15:47:38.401Z,0.50
2022-11-19T15:50:18.283Z,0.63
2022-11-19T15:53:01.371Z,0.60
2022-11-19T15:55:34.554Z,0.70
2022-11-19T15:58:19.601Z,0.57
2022-11-19T16:00:53.970Z,0.60
2022-11-19T16:03:26.972Z,0.93
2022-11-19T16:06:08.504Z,1.38
2022-11-19T16:08:41.441Z,1.50
2022-11-19T16:11:35.994Z,1.60
2022-11-19T16:14:39.929Z,1.75
2022-11-19T16:17:34.946Z,1.90
2022-11-19T16:20:21.479Z,2.08
2022-11-19T16:22:58.684Z,2.33
2022-11-19T16:25:35.106Z,2.60
2022-11-19T16:28:11.761Z,2.55
2022-11-19T16:30:49.559Z,2.50
2022-11-19T16:33:26.124Z,1.98
2022-11-19T16:36:13.183Z,2.35
2022-11-19T16:38:49.103Z,2.10
2022-11-19T16:41:42.771Z,2.17
2022-11-19T16:44:18.010Z,1.80
2022-11-19T16:46:53.330Z,1.83
2022-11-19T16:49:34.565Z,2.13
2022-11-19T16:52:08.243Z,1.77
2022-11-19T16:54:47.433Z,1.70
2022-11-19T16:57:23.270Z,1.98
2022-11-19T16:59:58.937Z,1.95
2022-11-19T17:02:40.232Z,2.00
2022-11-19T17:05:16.431Z,1.80
2022-11-19T17:07:51.025Z,2.17
2022-11-19T17:10:30.655Z,1.52
2022-11-19T17:13:24.393Z,2.10
2022-11-19T17:16:17.371Z,1.85
2022-11-19T17:18:52.180Z,1.88
2022-11-19T17:21:28.430Z,1.90
2022-11-19T17:24:01.313Z,2.17
2022-11-19T17:26:34.452Z,2.22
2022-11-19T17:29:12.361Z,1.90
2022-11-19T17:31:48.288Z,2.28
2022-11-19T17:34:31.122Z,1.90
2022-11-19T17:37:03.903Z,1.40
2022-11-19T17:39:36.683Z,1.50
2022-11-19T17:42:28.285Z,1.58
2022-11-19T17:45:06.036Z,2.10
2022-11-19T17:47:42.095Z,2.40
2022-11-19T17:50:16.453Z,2.20
2022-11-19T17:52:49.353Z,3.08
2022-11-19T17:55:23.454Z,2.88
2022-11-19T17:57:56.250Z,2.83
2022-11-19T18:00:29.045Z,2.80
2022-11-19T18:03:03.244Z,2.35
2022-11-19T18:05:39.510Z,2.30
2022-11-19T18:08:12.370Z,2.35
2022-11-19T18:10:47.586Z,2.58
2022-11-19T18:13:24.003Z,4.30
2022-11-19T18:15:57.765Z,3.53
2022-11-19T18:18:30.650Z,3.20
2022-11-19T18:21:05.220Z,3.17
2022-11-19T18:23:38.230Z,2.42
2022-11-19T18:26:11.743Z,2.83
2022-11-19T18:28:48.595Z,2.42
2022-11-19T18:31:24.182Z,2.80
2022-11-19T18:33:57.919Z,2.30
2022-11-19T18:36:32.136Z,2.38
2022-11-19T18:39:05.110Z,2.47
2022-11-19T18:41:38.170Z,2.90
2022-11-19T18:44:32.045Z,2.70
2022-11-19T18:47:09.986Z,2.40
2022-11-19T18:49:43.218Z,2.20
2022-11-19T18:52:17.361Z,2.05
2022-11-19T18:54:50.399Z,1.70
2022-11-19T18:57:23.277Z,2.20
2022-11-19T18:59:56.111Z,2.67
2022-11-19T19:02:29.028Z,3.60
2022-11-19T19:05:01.787Z,4.15
2022-11-19T19:07:36.114Z,4.00
2022-11-19T19:10:09.473Z,4.43
2022-11-19T19:12:42.607Z,4.85
2022-11-19T19:15:15.547Z,4.80
2022-11-19T19:17:48.381Z,3.78
2022-11-19T19:20:21.711Z,2.65
2022-11-19T19:22:55.953Z,2.90
2022-11-19T19:25:28.809Z,1.95
2022-11-19T19:28:01.663Z,2.20
2022-11-19T19:30:34.481Z,2.30
2022-11-19T19:33:07.314Z,2.05
2022-11-19T19:35:40.142Z,2.05
2022-11-19T19:38:14.340Z,2.03
2022-11-19T19:40:47.246Z,1.90
2022-11-19T19:43:20.089Z,1.95
2022-11-19T19:45:52.925Z,2.20
2022-11-19T19:48:25.792Z,1.95
2022-11-19T19:50:58.732Z,1.95
2022-11-19T19:53:32.903Z,1.73
2022-11-19T19:56:07.102Z,1.75
2022-11-19T19:58:40.554Z,1.90
2022-11-19T20:01:15.177Z,1.77
2022-11-19T20:03:54.123Z,2.25
2022-11-19T20:06:27.481Z,1.92
2022-11-19T20:09:06.909Z,2.00
2022-11-19T20:11:41.239Z,2.20
2022-11-19T20:14:14.043Z,2.00
2022-11-19T20:16:46.930Z,1.95
2022-11-19T20:19:19.743Z,1.95
2022-11-19T20:21:52.569Z,1.80
2022-11-19T20:24:26.725Z,1.80
2022-11-19T20:26:59.532Z,1.50
2022-11-19T20:29:32.330Z,1.70
2022-11-19T20:32:05.447Z,1.42
2022-11-19T20:34:38.260Z,1.40
2022-11-19T20:37:11.763Z,1.88
2022-11-19T20:39:46.007Z,1.40
2022-11-19T20:42:36.556Z,1.00
2022-11-19T20:45:09.855Z,0.90
2022-11-19T20:47:42.785Z,1.55
2022-11-19T20:50:15.989Z,1.27
2022-11-19T20:52:48.783Z,1.10
2022-11-19T20:55:22.910Z,1.10
2022-11-19T20:57:56.801Z,1.45
2022-11-19T21:00:29.641Z,1.60
2022-11-19T21:03:02.451Z,1.30
2022-11-19T21:05:35.421Z,1.08
2022-11-19T21:08:08.214Z,1.30
2022-11-19T21:10:42.950Z,1.70
2022-11-19T21:13:15.857Z,1.45
2022-11-19T21:15:48.738Z,1.30
2022-11-19T21:18:24.258Z,1.70
2022-11-19T21:21:01.695Z,1.35
2022-11-19T21:23:35.138Z,1.33
2022-11-19T21:26:12.182Z,1.30
2022-11-19T21:28:46.802Z,1.40
2022-11-19T21:31:21.422Z,1.40
2022-11-19T21:33:54.283Z,1.27
2022-11-19T21:36:27.190Z,1.10
2022-11-19T21:39:00.055Z,1.10
2022-11-19T21:41:34.743Z,1.00
2022-11-19T21:44:08.059Z,1.15
2022-11-19T21:46:40.929Z,1.23
2022-11-19T21:49:13.844Z,1.50
2022-11-19T21:51:46.630Z,1.25
2022-11-19T21:54:19.993Z,1.27
2022-11-19T21:56:54.264Z,1.73
2022-11-19T21:59:27.549Z,1.35
2022-11-19T22:02:00.326Z,1.30
2022-11-19T22:04:33.155Z,1.33
2022-11-19T22:07:07.195Z,1.05
2022-11-19T22:09:40.144Z,1.08
2022-11-19T22:12:14.556Z,1.15
2022-11-19T22:14:47.508Z,1.30
2022-11-19T22:17:20.334Z,1.50
2022-11-19T22:19:53.240Z,1.38
2022-11-19T22:22:26.170Z,1.27
2022-11-19T22:24:59.575Z,1.30
2022-11-19T22:27:33.938Z,1.30
2022-11-19T22:30:08.106Z,1.58
2022-11-19T22:32:40.942Z,1.63
2022-11-19T22:35:13.994Z,1.90
2022-11-19T22:37:46.822Z,1.52
2022-11-19T22:40:19.821Z,1.38
2022-11-19T22:42:54.169Z,1.15
2022-11-19T22:45:27.024Z,1.40
2022-11-19T22:47:59.910Z,1.60
2022-11-19T22:50:32.970Z,1.52
2022-11-19T22:53:05.841Z,1.60
2022-11-19T22:55:39.276Z,1.80
2022-11-19T22:58:13.645Z,1.65
2022-11-19T23:00:48.866Z,1.70
2022-11-19T23:03:21.789Z,1.73
2022-11-19T23:05:56.297Z,1.92
2022-11-19T23:08:29.110Z,2.13
2022-11-19T23:11:04.016Z,2.08
2022-11-19T23:13:39.881Z,2.22
2022-11-19T23:16:15.554Z,2.30
2022-11-19T23:18:50.473Z,2.28
2022-11-19T23:21:25.782Z,2.10
2022-11-19T23:23:59.887Z,2.05
2022-11-19T23:26:34.052Z,2.10
2022-11-19T23:29:09.190Z,2.08
2022-11-19T23:31:42.100Z,1.48
2022-11-19T23:34:14.970Z,1.80
2022-11-19T23:36:47.762Z,1.77
2022-11-19T23:39:20.642Z,1.85
2022-11-19T23:41:53.924Z,1.58
2022-11-19T23:44:28.338Z,1.80
2022-11-19T23:47:01.299Z,1.52
2022-11-19T23:49:34.098Z,1.67
2022-11-19T23:52:07.058Z,1.92
2022-11-19T23:54:39.817Z,1.80
2022-11-19T23:57:12.655Z,1.50
2022-11-19T23:59:46.860Z,1.80
